Time;durP1;ratioP1;P1;durP2;ratioP2;P2;SDS_P1;SDS_P2;PMS_P1;PMS_P2;Temp;Humidity;BMP_temperature;BMP_pressure;BME280_temperature;BME280_humidity;BME280_pressure;Samples;Min_cycle;Max_cycle;Signal;HPM_P1;HPM_P2
2022/09/19 00:01:42;;;;;;;5.55;1.23;;;10.90;99.90;;;;;;5085059;28;20176;-72
2022/09/19 00:04:19;;;;;;;2.85;0.90;;;10.90;99.90;;;;;;5079546;28;20352;-71
2022/09/19 00:06:47;;;;;;;2.22;0.80;;;10.90;99.90;;;;;;5073560;28;20193;-72
2022/09/19 00:09:16;;;;;;;4.27;1.00;;;11.00;99.90;;;;;;5066938;28;20168;-72
2022/09/19 00:11:44;;;;;;;2.65;1.08;;;11.00;99.90;;;;;;5079060;28;20235;-71
2022/09/19 00:14:13;;;;;;;2.75;0.80;;;11.00;99.90;;;;;;5078757;28;20192;-72
2022/09/19 00:16:44;;;;;;;2.72;0.85;;;11.00;99.90;;;;;;5079398;28;20175;-72
2022/09/19 00:19:13;;;;;;;2.80;0.80;;;11.00;99.90;;;;;;5067162;28;20456;-72
2022/09/19 00:21:41;;;;;;;2.85;1.00;;;11.10;99.90;;;;;;5078786;28;20423;-72
2022/09/19 00:26:58;;;;;;;2.42;0.90;;;11.20;99.90;;;;;;5086978;28;20270;-72
2022/09/19 00:29:24;;;;;;;3.63;1.00;;;11.10;99.90;;;;;;5074949;28;20236;-71
2022/09/19 00:31:51;;;;;;;5.57;1.20;;;11.10;99.90;;;;;;5078741;28;20200;-74
2022/09/19 00:34:17;;;;;;;4.28;1.00;;;11.10;99.90;;;;;;5078635;28;20167;-72
2022/09/19 00:36:48;;;;;;;4.65;1.30;;;11.10;99.90;;;;;;5074180;28;20180;-73
2022/09/19 00:39:16;;;;;;;3.58;1.15;;;11.10;99.90;;;;;;5071944;28;20257;-73
2022/09/19 00:41:46;;;;;;;3.03;0.90;;;11.10;99.90;;;;;;5067446;28;20295;-73
2022/09/19 00:44:24;;;;;;;3.10;1.00;;;11.10;99.90;;;;;;5075292;28;20177;-72
2022/09/19 00:47:05;;;;;;;3.03;1.00;;;11.10;99.90;;;;;;5068094;28;20176;-72
2022/09/19 00:49:40;;;;;;;1.50;0.90;;;11.10;99.90;;;;;;5076663;28;20241;-72
2022/09/19 00:52:27;;;;;;;1.73;0.90;;;11.10;99.90;;;;;;5058511;28;20188;-73
2022/09/19 00:54:56;;;;;;;3.33;1.00;;;11.10;99.90;;;;;;5069464;28;20320;-73
2022/09/19 00:57:35;;;;;;;5.83;0.93;;;11.10;99.90;;;;;;5071018;28;20241;-73
2022/09/19 01:00:05;;;;;;;4.15;0.90;;;11.10;99.90;;;;;;5082274;28;20167;-72
2022/09/19 01:02:33;;;;;;;5.47;1.20;;;11.10;99.90;;;;;;5077490;28;20260;-72
2022/09/19 01:05:02;;;;;;;3.20;0.93;;;11.20;99.90;;;;;;5078313;28;20176;-73
2022/09/19 01:08:01;;;;;;;4.17;1.13;;;11.20;99.90;;;;;;5077440;28;20176;-73
2022/09/19 01:10:54;;;;;;;4.22;1.10;;;11.20;99.90;;;;;;5067175;28;20342;-74
2022/09/19 01:13:31;;;;;;;1.97;0.90;;;11.20;99.90;;;;;;5089289;28;20177;-74
2022/09/19 01:16:20;;;;;;;6.75;1.45;;;11.20;99.90;;;;;;5057953;28;20199;-74
2022/09/19 01:19:11;;;;;;;3.65;0.95;;;11.20;99.90;;;;;;5058450;28;20196;-74
2022/09/19 01:21:50;;;;;;;3.80;1.00;;;11.30;99.90;;;;;;5043385;28;20244;-73
2022/09/19 01:24:25;;;;;;;1.70;1.10;;;11.30;99.90;;;;;;5063220;28;20216;-73
2022/09/19 01:27:18;;;;;;;5.10;1.17;;;11.30;99.90;;;;;;5079485;28;20182;-73
2022/09/19 01:30:08;;;;;;;2.28;1.00;;;11.30;99.90;;;;;;5034579;28;20303;-75
2022/09/19 01:32:42;;;;;;;2.57;1.03;;;11.20;99.90;;;;;;5067522;28;20222;-75
2022/09/19 01:35:12;;;;;;;3.70;1.03;;;11.30;99.90;;;;;;5077791;28;20317;-71
2022/09/19 01:38:07;;;;;;;2.70;1.10;;;11.30;99.90;;;;;;5072915;28;20175;-73
2022/09/19 01:40:36;;;;;;;4.25;1.08;;;11.30;99.90;;;;;;5079550;28;20179;-72
2022/09/19 01:43:11;;;;;;;4.50;1.10;;;11.30;99.90;;;;;;5069095;28;20168;-74
2022/09/19 01:45:40;;;;;;;3.13;1.13;;;11.30;99.90;;;;;;5077939;28;20258;-73
2022/09/19 01:48:26;;;;;;;5.07;1.25;;;11.30;99.90;;;;;;5080226;28;20230;-72
2022/09/19 01:50:58;;;;;;;2.53;0.80;;;11.30;99.90;;;;;;5077669;28;20171;-73
2022/09/19 01:53:44;;;;;;;4.20;1.40;;;11.40;99.90;;;;;;5095098;28;20271;-74
2022/09/19 01:56:28;;;;;;;6.28;1.40;;;11.40;99.90;;;;;;5064334;28;20168;-73
2022/09/19 01:59:20;;;;;;;4.43;1.10;;;11.40;99.90;;;;;;5077866;28;20167;-74
2022/09/19 02:02:01;;;;;;;4.70;1.17;;;11.50;99.90;;;;;;5067540;28;20191;-73
2022/09/19 02:04:39;;;;;;;3.33;1.25;;;11.50;99.90;;;;;;5077755;28;20332;-77
2022/09/19 02:07:22;;;;;;;2.42;0.95;;;11.50;99.90;;;;;;5090381;28;20203;-76
2022/09/19 02:10:00;;;;;;;3.67;0.98;;;11.50;99.90;;;;;;5079911;28;20384;-76
2022/09/19 02:12:31;;;;;;;5.32;1.48;;;11.50;99.90;;;;;;5060329;28;20196;-76
2022/09/19 02:15:01;;;;;;;3.72;1.48;;;11.50;99.90;;;;;;5073706;28;20287;-76
2022/09/19 02:17:44;;;;;;;5.68;1.20;;;11.50;99.90;;;;;;5077895;28;20187;-76
2022/09/19 02:20:20;;;;;;;4.85;1.30;;;11.50;99.90;;;;;;5072112;28;20168;-77
2022/09/19 02:22:53;;;;;;;5.50;1.05;;;11.50;99.90;;;;;;5073758;28;20203;-77
2022/09/19 02:25:30;;;;;;;3.97;1.10;;;11.50;99.90;;;;;;5073029;28;20192;-77
2022/09/19 02:28:11;;;;;;;4.20;1.08;;;11.50;99.90;;;;;;5075732;28;20176;-75
2022/09/19 02:30:39;;;;;;;5.10;1.33;;;11.40;99.90;;;;;;5077125;28;20263;-75
2022/09/19 02:33:06;;;;;;;4.43;1.15;;;11.50;99.90;;;;;;5078065;28;20196;-76
2022/09/19 02:36:30;;;;;;;2.90;1.20;;;11.40;99.90;;;;;;5062668;28;20177;-76
2022/09/19 02:39:10;;;;;;;2.17;0.85;;;11.40;99.90;;;;;;5028408;28;20185;-77
2022/09/19 02:41:52;;;;;;;4.45;1.25;;;11.40;99.90;;;;;;5060962;28;20192;-77
2022/09/19 02:45:06;;;;;;;6.53;1.10;;;11.40;99.90;;;;;;5076655;28;20176;-75
2022/09/19 02:47:40;;;;;;;4.90;1.13;;;11.40;99.90;;;;;;5068597;28;20196;-76
2022/09/19 02:50:25;;;;;;;3.05;1.10;;;11.40;99.90;;;;;;5072387;28;20196;-76
2022/09/19 02:52:54;;;;;;;6.60;1.27;;;11.40;99.90;;;;;;5068735;28;20318;-75
2022/09/19 02:55:25;;;;;;;7.28;1.35;;;11.40;99.90;;;;;;5073392;28;20198;-75
2022/09/19 02:57:54;;;;;;;2.20;1.20;;;11.40;99.90;;;;;;5068631;28;20220;-76
2022/09/19 03:00:25;;;;;;;3.95;1.25;;;11.40;99.90;;;;;;5072934;28;20181;-75
2022/09/19 03:04:11;;;;;;;6.90;1.25;;;11.40;99.90;;;;;;5090663;28;20180;-75
2022/09/19 03:05:51;;;;;;;4.88;1.38;;;11.40;99.90;;;;;;5087042;28;20213;-76
2022/09/19 03:08:18;;;;;;;5.45;1.20;;;11.50;99.90;;;;;;5074821;28;20180;-75
2022/09/19 03:10:50;;;;;;;3.63;1.23;;;11.50;99.90;;;;;;5073395;28;20206;-76
2022/09/19 03:13:24;;;;;;;2.90;1.02;;;11.50;99.90;;;;;;5080394;28;20204;-75
2022/09/19 03:15:58;;;;;;;4.00;1.17;;;11.50;99.90;;;;;;5074911;28;20184;-76
2022/09/19 03:18:27;;;;;;;5.80;1.27;;;11.50;99.90;;;;;;5072825;28;20195;-74
2022/09/19 03:21:02;;;;;;;3.08;1.10;;;11.50;99.90;;;;;;5071403;28;20181;-76
2022/09/19 03:23:32;;;;;;;4.63;1.27;;;11.60;99.90;;;;;;5077301;28;20171;-77
2022/09/19 03:25:58;;;;;;;5.38;1.77;;;11.60;99.90;;;;;;5072672;28;20213;-75
2022/09/19 03:28:23;;;;;;;3.17;1.20;;;11.60;99.90;;;;;;5069913;28;20172;-76
2022/09/19 03:30:51;;;;;;;3.15;1.45;;;11.60;99.90;;;;;;5075015;28;20188;-76
2022/09/19 03:33:17;;;;;;;4.53;1.48;;;11.60;99.90;;;;;;5086295;28;20172;-75
2022/09/19 03:35:50;;;;;;;5.65;1.30;;;11.60;99.90;;;;;;5080011;28;20195;-75
2022/09/19 03:38:16;;;;;;;5.85;1.10;;;11.60;99.90;;;;;;5079800;28;20172;-75
2022/09/19 03:40:42;;;;;;;4.55;1.25;;;11.60;99.90;;;;;;5080139;28;20267;-77
2022/09/19 03:43:07;;;;;;;4.93;1.40;;;11.60;99.90;;;;;;5079437;28;20224;-77
2022/09/19 03:45:33;;;;;;;5.55;1.33;;;11.60;99.90;;;;;;5065858;28;20200;-75
2022/09/19 03:47:58;;;;;;;4.40;1.25;;;11.60;99.90;;;;;;5067855;28;20188;-77
2022/09/19 03:50:24;;;;;;;5.75;1.33;;;11.60;99.90;;;;;;5080080;28;20190;-77
2022/09/19 03:52:52;;;;;;;4.90;1.48;;;11.60;99.90;;;;;;5074375;28;20307;-77
2022/09/19 03:55:20;;;;;;;5.30;1.30;;;11.60;99.90;;;;;;5067413;28;20183;-76
2022/09/19 03:57:49;;;;;;;3.47;1.35;;;11.60;99.90;;;;;;5079614;28;20259;-76
2022/09/19 04:00:15;;;;;;;10.40;1.38;;;11.60;99.90;;;;;;5078370;28;20198;-76
2022/09/19 04:02:41;;;;;;;3.78;1.45;;;11.70;99.90;;;;;;5078009;28;20204;-77
2022/09/19 04:05:09;;;;;;;4.32;1.38;;;11.60;99.90;;;;;;5077911;28;20176;-75
2022/09/19 04:07:37;;;;;;;5.00;1.20;;;11.70;99.90;;;;;;5078932;28;20224;-76
2022/09/19 04:10:04;;;;;;;4.57;1.50;;;11.70;99.90;;;;;;5069783;28;20270;-74
2022/09/19 04:12:30;;;;;;;6.07;1.38;;;11.70;99.90;;;;;;5081336;28;20256;-76
2022/09/19 04:14:58;;;;;;;4.65;1.30;;;11.70;99.90;;;;;;5062152;28;20176;-74
2022/09/19 04:17:27;;;;;;;3.90;1.40;;;11.70;99.90;;;;;;5075915;28;20215;-75
2022/09/19 04:19:54;;;;;;;4.65;1.40;;;11.70;99.90;;;;;;5079815;28;20220;-75
2022/09/19 04:22:22;;;;;;;4.85;1.63;;;11.70;99.90;;;;;;5059429;28;20241;-76
2022/09/19 04:24:49;;;;;;;4.78;1.15;;;11.70;99.90;;;;;;5059796;28;20278;-75
2022/09/19 04:27:17;;;;;;;6.03;1.27;;;11.80;99.90;;;;;;5082209;28;20176;-75
2022/09/19 04:29:46;;;;;;;4.65;1.30;;;11.70;99.90;;;;;;5073995;28;20176;-75
2022/09/19 04:32:15;;;;;;;5.82;1.50;;;11.80;99.90;;;;;;5063981;28;20275;-75
2022/09/19 04:34:43;;;;;;;4.70;1.25;;;11.80;99.90;;;;;;5072693;28;20211;-76
2022/09/19 04:37:11;;;;;;;3.35;1.80;;;11.90;99.90;;;;;;5077180;28;20203;-76
2022/09/19 04:39:37;;;;;;;5.55;1.35;;;11.90;99.90;;;;;;5074000;28;20180;-80
2022/09/19 04:42:03;;;;;;;4.10;1.52;;;11.90;99.90;;;;;;5075065;28;20168;-76
2022/09/19 04:44:29;;;;;;;4.97;1.33;;;12.00;99.90;;;;;;5069275;28;20200;-78
2022/09/19 04:46:55;;;;;;;4.47;1.40;;;12.00;99.90;;;;;;5076090;28;20204;-77
2022/09/19 04:49:21;;;;;;;7.28;1.60;;;12.10;99.90;;;;;;5078351;28;20241;-77
2022/09/19 04:51:47;;;;;;;6.65;1.50;;;12.00;99.90;;;;;;5077954;28;20195;-78
2022/09/19 04:54:16;;;;;;;5.18;1.40;;;12.10;99.90;;;;;;5078051;28;20499;-77
2022/09/19 04:56:44;;;;;;;4.15;1.20;;;12.10;99.90;;;;;;5078211;28;20227;-77
2022/09/19 04:59:10;;;;;;;4.28;1.17;;;12.10;99.90;;;;;;5074192;28;20183;-76
2022/09/19 05:01:37;;;;;;;5.32;1.42;;;12.10;99.90;;;;;;5074918;28;20184;-78
2022/09/19 05:04:04;;;;;;;3.97;1.50;;;12.10;99.90;;;;;;5078432;28;20172;-76
2022/09/19 05:06:32;;;;;;;4.20;1.20;;;12.20;99.90;;;;;;5078447;28;20171;-78
2022/09/19 05:09:00;;;;;;;4.43;1.45;;;12.20;99.90;;;;;;5077541;28;20223;-77
2022/09/19 05:11:27;;;;;;;6.13;1.45;;;12.20;99.90;;;;;;5078874;28;20203;-76
2022/09/19 05:13:52;;;;;;;4.60;1.40;;;12.20;99.90;;;;;;5077013;28;20253;-77
2022/09/19 05:16:18;;;;;;;8.80;1.25;;;12.20;99.90;;;;;;5071761;28;20168;-77
2022/09/19 05:18:49;;;;;;;4.13;1.42;;;12.20;99.90;;;;;;5077618;28;20231;-77
2022/09/19 05:21:17;;;;;;;4.65;1.27;;;12.20;99.90;;;;;;5078192;28;20200;-81
2022/09/19 05:23:43;;;;;;;3.55;1.30;;;12.20;99.90;;;;;;5077718;28;20186;-78
2022/09/19 05:26:15;;;;;;;5.10;1.30;;;12.20;99.90;;;;;;5070165;28;20188;-76
2022/09/19 05:28:44;;;;;;;7.18;1.40;;;12.20;99.90;;;;;;5079038;28;20241;-79
2022/09/19 05:31:13;;;;;;;4.55;1.20;;;12.20;99.90;;;;;;5072671;28;20172;-79
2022/09/19 05:33:38;;;;;;;5.10;1.50;;;12.20;99.90;;;;;;5069595;28;20173;-78
2022/09/19 05:36:07;;;;;;;4.53;1.33;;;12.30;99.90;;;;;;5058414;28;20175;-79
2022/09/19 05:38:33;;;;;;;4.18;1.52;;;12.30;99.90;;;;;;5075701;28;20180;-78
2022/09/19 05:41:01;;;;;;;4.38;1.50;;;12.30;99.90;;;;;;5077446;28;20192;-81
2022/09/19 05:43:27;;;;;;;6.47;2.20;;;12.30;99.90;;;;;;5077598;28;20187;-77
2022/09/19 05:45:56;;;;;;;5.70;1.77;;;12.40;99.90;;;;;;5077904;28;20196;-79
2022/09/19 05:48:26;;;;;;;4.32;1.70;;;12.40;99.90;;;;;;5077565;28;20168;-80
2022/09/19 05:50:53;;;;;;;2.17;1.55;;;12.40;99.90;;;;;;5077599;28;20215;-80
2022/09/19 05:56:08;;;;;;;4.47;1.50;;;12.40;99.90;;;;;;5094825;28;20209;-79
2022/09/19 05:58:35;;;;;;;4.28;1.25;;;12.40;99.90;;;;;;5077455;28;20206;-80
2022/09/19 06:01:09;;;;;;;3.53;1.20;;;12.50;99.90;;;;;;5077217;28;20198;-82
2022/09/19 06:03:42;;;;;;;3.33;1.20;;;12.50;99.90;;;;;;5077451;28;20232;-79
2022/09/19 06:06:11;;;;;;;4.00;1.30;;;12.50;99.90;;;;;;5077196;28;20156;-80
2022/09/19 06:08:41;;;;;;;4.03;1.30;;;12.50;99.90;;;;;;5077500;28;20253;-77
2022/09/19 06:11:08;;;;;;;3.45;1.60;;;12.50;99.90;;;;;;5077356;28;20179;-81
2022/09/19 06:16:20;;;;;;;3.63;1.30;;;12.50;99.90;;;;;;5095405;28;20175;-79
2022/09/19 06:18:51;;;;;;;5.50;1.60;;;12.50;99.90;;;;;;5068345;28;20219;-79
2022/09/19 06:21:18;;;;;;;5.25;1.60;;;12.60;99.90;;;;;;5076576;28;20195;-80
2022/09/19 06:23:49;;;;;;;3.45;1.20;;;12.60;99.90;;;;;;5075302;28;20180;-78
2022/09/19 06:26:18;;;;;;;5.90;1.73;;;12.60;99.90;;;;;;5060991;28;20183;-79
2022/09/19 06:28:46;;;;;;;4.35;1.20;;;12.60;99.90;;;;;;5065307;28;20181;-79
2022/09/19 06:31:11;;;;;;;4.45;1.20;;;12.60;99.90;;;;;;5069698;28;20180;-80
2022/09/19 06:33:41;;;;;;;5.80;1.20;;;12.70;99.90;;;;;;5077796;28;20196;-80
2022/09/19 06:36:10;;;;;;;2.53;1.08;;;12.70;99.90;;;;;;5081023;28;20214;-81
2022/09/19 06:38:40;;;;;;;8.73;1.63;;;12.70;99.90;;;;;;5067849;28;20184;-79
2022/09/19 06:41:08;;;;;;;4.82;1.50;;;12.80;99.90;;;;;;5080846;28;20208;-81
2022/09/19 06:43:33;;;;;;;5.70;1.48;;;12.80;99.90;;;;;;5081136;28;20188;-81
2022/09/19 06:45:59;;;;;;;4.50;1.38;;;12.80;99.90;;;;;;5072351;28;20180;-82
2022/09/19 06:48:28;;;;;;;7.45;1.60;;;12.90;99.90;;;;;;5072004;28;20172;-80
2022/09/19 06:50:53;;;;;;;5.65;1.25;;;13.00;99.90;;;;;;5083425;28;20187;-79
2022/09/19 06:53:19;;;;;;;5.68;1.83;;;13.00;99.90;;;;;;5083135;28;20279;-81
2022/09/19 06:55:45;;;;;;;7.95;1.80;;;13.10;99.90;;;;;;5084045;28;20183;-80
2022/09/19 06:58:12;;;;;;;5.78;1.50;;;13.10;99.90;;;;;;5076792;28;20283;-79
2022/09/19 07:00:44;;;;;;;4.68;1.50;;;13.20;99.90;;;;;;5073887;28;20207;-81
2022/09/19 07:03:15;;;;;;;4.32;1.10;;;13.20;99.90;;;;;;5083979;28;20195;-82
2022/09/19 07:05:42;;;;;;;5.18;1.20;;;13.30;99.90;;;;;;5082621;28;20194;-79
2022/09/19 07:08:10;;;;;;;5.10;1.73;;;13.40;99.90;;;;;;5083755;28;20230;-81
2022/09/19 07:10:36;;;;;;;6.95;1.58;;;13.40;99.90;;;;;;5083904;28;20199;-84
2022/09/19 07:13:04;;;;;;;3.78;1.30;;;13.50;99.90;;;;;;5076364;28;20196;-81
2022/09/19 07:15:32;;;;;;;6.15;1.67;;;13.50;99.90;;;;;;5080747;28;20168;-84
2022/09/19 07:17:58;;;;;;;3.38;1.30;;;13.60;99.90;;;;;;5085608;28;20255;-77
2022/09/19 07:20:40;;;;;;;5.00;1.27;;;13.60;99.90;;;;;;5071920;28;20227;-80
2022/09/19 07:23:11;;;;;;;4.50;1.42;;;13.60;99.90;;;;;;5090870;28;20191;-79
2022/09/19 07:25:37;;;;;;;4.55;1.40;;;13.70;99.90;;;;;;5072911;28;20210;-81
2022/09/19 07:28:05;;;;;;;6.32;1.55;;;13.70;99.90;;;;;;5080864;28;20215;-71
2022/09/19 07:30:33;;;;;;;5.40;1.40;;;13.70;99.90;;;;;;5080408;28;20218;-70
2022/09/19 07:33:00;;;;;;;5.28;1.73;;;13.80;99.90;;;;;;5077175;28;20294;-71
2022/09/19 07:35:32;;;;;;;7.88;1.90;;;13.80;99.90;;;;;;5078004;28;20195;-70
2022/09/19 07:38:01;;;;;;;6.00;1.33;;;13.90;99.90;;;;;;5080099;28;20218;-70
2022/09/19 07:40:29;;;;;;;10.98;2.10;;;13.90;99.90;;;;;;5080108;28;20279;-70
2022/09/19 07:43:02;;;;;;;4.47;1.27;;;13.90;99.90;;;;;;5061878;28;20173;-71
2022/09/19 07:45:32;;;;;;;3.13;1.15;;;14.00;99.90;;;;;;5062935;28;20188;-70
2022/09/19 07:47:59;;;;;;;6.28;1.60;;;14.00;99.90;;;;;;5066713;28;20175;-71
2022/09/19 07:50:28;;;;;;;4.47;1.30;;;14.10;99.90;;;;;;5078961;28;20172;-71
2022/09/19 07:53:14;;;;;;;6.40;1.48;;;14.10;99.90;;;;;;5067158;28;20222;-71
2022/09/19 07:55:43;;;;;;;3.75;1.17;;;14.10;99.90;;;;;;5080339;28;20199;-72
2022/09/19 07:58:12;;;;;;;7.00;1.58;;;14.20;99.90;;;;;;5081073;28;20178;-70
2022/09/19 08:00:41;;;;;;;6.55;1.25;;;14.30;99.90;;;;;;5082606;28;20168;-72
2022/09/19 08:03:10;;;;;;;4.22;1.45;;;14.30;99.90;;;;;;5079060;28;20245;-70
2022/09/19 08:05:39;;;;;;;4.80;1.30;;;14.30;99.90;;;;;;5079643;28;20186;-70
2022/09/19 08:08:09;;;;;;;2.97;1.20;;;14.30;99.90;;;;;;5078299;28;20177;-71
2022/09/19 08:10:38;;;;;;;5.60;1.48;;;14.20;99.90;;;;;;5077778;28;20176;-71
2022/09/19 08:13:08;;;;;;;4.10;1.17;;;14.10;99.90;;;;;;5079548;28;20238;-71
2022/09/19 08:15:37;;;;;;;5.22;1.50;;;14.00;99.90;;;;;;5079422;28;20171;-70
2022/09/19 08:18:13;;;;;;;5.28;1.60;;;13.90;99.90;;;;;;5076348;28;20519;-71
2022/09/19 08:20:40;;;;;;;4.07;1.40;;;13.80;99.90;;;;;;5067038;28;20166;-72
2022/09/19 08:23:16;;;;;;;4.93;1.23;;;13.70;99.90;;;;;;5079237;28;20183;-72
2022/09/19 08:25:46;;;;;;;4.93;1.48;;;13.60;99.90;;;;;;5079205;28;20415;-72
2022/09/19 08:28:16;;;;;;;7.75;1.38;;;13.60;99.90;;;;;;5078942;28;20208;-71
2022/09/19 08:30:45;;;;;;;3.90;1.40;;;13.60;99.90;;;;;;5079461;28;20164;-72
2022/09/19 08:33:14;;;;;;;6.25;2.25;;;13.70;99.90;;;;;;5079063;28;20241;-72
2022/09/19 08:35:41;;;;;;;5.05;1.40;;;13.80;99.90;;;;;;5078702;28;20164;-71
2022/09/19 08:38:11;;;;;;;4.28;1.58;;;13.90;99.90;;;;;;5079371;28;20171;-72
2022/09/19 08:40:40;;;;;;;5.53;1.55;;;14.00;99.90;;;;;;5078940;28;20183;-72
2022/09/19 08:43:18;;;;;;;4.60;1.15;;;14.20;99.90;;;;;;5078858;28;20183;-72
2022/09/19 08:46:17;;;;;;;6.45;1.92;;;14.20;99.90;;;;;;5070741;28;20207;-72
2022/09/19 08:48:50;;;;;;;6.63;1.90;;;14.40;99.90;;;;;;5059109;28;20199;-72
2022/09/19 08:51:46;;;;;;;6.00;1.60;;;14.50;99.90;;;;;;5078967;28;20197;-70
2022/09/19 08:54:27;;;;;;;4.30;1.40;;;14.60;99.90;;;;;;5069855;28;20219;-70
2022/09/19 08:56:54;;;;;;;5.80;1.70;;;14.60;99.90;;;;;;5079199;28;20176;-71
2022/09/19 08:59:26;;;;;;;4.97;1.50;;;14.70;99.90;;;;;;5079004;28;20196;-72
2022/09/19 09:02:03;;;;;;;5.75;1.50;;;14.70;99.90;;;;;;5075544;28;20290;-72
2022/09/19 09:04:30;;;;;;;4.57;1.48;;;14.60;99.90;;;;;;5074950;28;20180;-71
2022/09/19 09:07:06;;;;;;;6.35;2.05;;;14.50;99.90;;;;;;5075263;28;20172;-71
2022/09/19 09:09:51;;;;;;;4.82;1.70;;;14.40;99.90;;;;;;5075872;28;20172;-71
2022/09/19 09:12:31;;;;;;;3.05;1.40;;;14.40;99.90;;;;;;5077767;28;20211;-71
2022/09/19 09:15:25;;;;;;;5.28;1.63;;;14.30;99.90;;;;;;5078140;28;20194;-71
2022/09/19 09:18:30;;;;;;;5.13;1.50;;;14.30;99.90;;;;;;5078215;28;20270;-71
2022/09/19 09:21:27;;;;;;;5.45;1.40;;;14.30;99.90;;;;;;5059907;28;20175;-72
2022/09/19 09:24:03;;;;;;;3.83;1.20;;;14.30;99.90;;;;;;5078544;28;20266;-72
2022/09/19 09:26:36;;;;;;;4.95;1.42;;;14.30;99.90;;;;;;5058346;28;20187;-71
2022/09/19 09:29:27;;;;;;;3.33;1.25;;;14.30;99.90;;;;;;5070566;28;20202;-71
2022/09/19 09:31:59;;;;;;;4.30;1.48;;;14.40;99.90;;;;;;5071842;28;20200;-71
2022/09/19 09:34:44;;;;;;;6.30;1.50;;;14.40;99.90;;;;;;5058453;28;20193;-71
2022/09/19 09:37:19;;;;;;;2.75;1.10;;;14.50;99.90;;;;;;5078201;28;20263;-72
2022/09/19 09:40:00;;;;;;;3.70;1.40;;;14.60;99.90;;;;;;5077390;28;20202;-72
2022/09/19 09:42:55;;;;;;;8.48;1.92;;;14.80;99.90;;;;;;5076641;28;20196;-72
2022/09/19 09:45:33;;;;;;;4.85;1.30;;;14.90;99.90;;;;;;5077197;28;20219;-73
2022/09/19 09:48:10;;;;;;;4.30;1.00;;;15.00;99.90;;;;;;5078091;28;20198;-73
2022/09/19 09:51:00;;;;;;;8.77;1.92;;;15.40;99.90;;;;;;5077966;28;20266;-73
2022/09/19 09:53:58;;;;;;;3.70;1.10;;;15.90;99.90;;;;;;5077599;28;20222;-73
2022/09/19 09:56:50;;;;;;;4.25;1.60;;;16.50;99.90;;;;;;5059230;28;20173;-72
2022/09/19 10:03:34;;;;;;;4.85;1.50;;;17.00;99.90;;;;;;5077160;28;20198;-72
2022/09/19 10:05:10;;;;;;;2.70;1.15;;;17.50;99.90;;;;;;5095364;28;20205;-72
2022/09/19 10:08:02;;;;;;;5.47;1.38;;;17.50;99.90;;;;;;5077869;28;20206;-69
2022/09/19 10:10:31;;;;;;;5.68;1.40;;;17.60;99.90;;;;;;5078589;28;20211;-72
2022/09/19 10:13:08;;;;;;;4.78;1.80;;;17.80;99.90;;;;;;5057524;28;20204;-72
2022/09/19 10:15:39;;;;;;;5.07;1.50;;;17.90;99.90;;;;;;5057699;28;20204;-72
2022/09/19 10:18:14;;;;;;;4.43;1.38;;;17.80;99.90;;;;;;5066770;28;20199;-72
2022/09/19 10:20:54;;;;;;;7.65;1.80;;;17.70;99.90;;;;;;5077236;28;20195;-72
2022/09/19 10:23:26;;;;;;;5.53;1.25;;;17.80;99.90;;;;;;5077473;28;20171;-72
2022/09/19 10:26:02;;;;;;;3.80;1.23;;;17.90;99.90;;;;;;5078979;28;20207;-72
2022/09/19 10:28:31;;;;;;;6.22;1.90;;;18.00;99.90;;;;;;5077920;28;20156;-71
2022/09/19 10:30:59;;;;;;;6.70;1.83;;;18.10;99.90;;;;;;5063870;28;20172;-71
2022/09/19 10:33:28;;;;;;;7.03;1.48;;;18.10;99.90;;;;;;5074876;28;20192;-73
2022/09/19 10:35:58;;;;;;;9.70;1.50;;;18.10;99.90;;;;;;5095590;28;20282;-72
2022/09/19 10:38:26;;;;;;;4.45;1.63;;;18.10;99.90;;;;;;5057599;28;20204;-72
2022/09/19 10:41:01;;;;;;;7.30;1.77;;;18.00;99.90;;;;;;5061032;28;20165;-72
2022/09/19 10:43:31;;;;;;;5.22;1.73;;;17.90;99.90;;;;;;5067079;28;20176;-71
2022/09/19 10:46:06;;;;;;;5.75;1.73;;;17.90;99.90;;;;;;5077156;28;20284;-71
2022/09/19 10:48:34;;;;;;;3.78;1.30;;;17.90;99.90;;;;;;5047155;28;20243;-72
2022/09/19 10:51:08;;;;;;;5.75;1.58;;;18.00;99.90;;;;;;5076975;28;20233;-72
2022/09/19 10:53:35;;;;;;;7.15;1.52;;;18.00;99.90;;;;;;5074741;28;20184;-71
2022/09/19 10:56:26;;;;;;;4.80;1.40;;;18.10;99.90;;;;;;5076377;28;20301;-72
2022/09/19 10:59:04;;;;;;;6.20;1.90;;;18.10;99.90;;;;;;5077620;28;20215;-72
2022/09/19 11:01:32;;;;;;;5.65;1.63;;;18.10;99.90;;;;;;5075486;28;20191;-72
2022/09/19 11:04:03;;;;;;;3.53;1.40;;;18.20;99.90;;;;;;5063618;28;20173;-70
2022/09/19 11:06:32;;;;;;;5.15;1.13;;;18.30;99.90;;;;;;5071479;28;20188;-72
2022/09/19 11:09:19;;;;;;;3.58;1.42;;;18.60;99.90;;;;;;5078399;28;20267;-72
2022/09/19 11:11:48;;;;;;;3.75;1.20;;;18.70;99.90;;;;;;5080223;28;20214;-71
2022/09/19 11:14:31;;;;;;;3.95;1.30;;;18.80;99.90;;;;;;5080847;28;20173;-72
2022/09/19 11:17:12;;;;;;;5.75;1.45;;;19.00;99.90;;;;;;5081144;28;20183;-71
2022/09/19 11:19:59;;;;;;;6.22;1.58;;;19.20;99.90;;;;;;5081838;28;20198;-71
2022/09/19 11:22:39;;;;;;;5.28;1.25;;;19.40;99.90;;;;;;5067758;28;20200;-72
2022/09/19 11:25:20;;;;;;;7.03;1.40;;;19.60;99.90;;;;;;5061214;28;20286;-72
2022/09/19 11:28:07;;;;;;;3.58;1.30;;;19.70;99.90;;;;;;5063196;28;20906;-72
2022/09/19 11:30:48;;;;;;;3.67;1.00;;;19.60;99.90;;;;;;5080456;28;20207;-71
2022/09/19 11:33:27;;;;;;;3.75;1.13;;;19.60;99.90;;;;;;5060339;28;20200;-72
2022/09/19 11:36:03;;;;;;;4.30;0.95;;;19.50;99.90;;;;;;5078125;28;20182;-71
2022/09/19 11:38:43;;;;;;;5.65;1.55;;;19.60;99.90;;;;;;5079446;28;20282;-71
2022/09/19 11:41:17;;;;;;;8.30;1.20;;;19.70;99.90;;;;;;5079611;28;20263;-72
2022/09/19 11:44:09;;;;;;;6.18;1.20;;;19.70;99.90;;;;;;5077822;28;20427;-71
2022/09/19 11:46:42;;;;;;;3.10;1.10;;;19.80;99.90;;;;;;5060239;28;20160;-72
2022/09/19 11:49:32;;;;;;;4.88;1.27;;;19.80;99.90;;;;;;5059921;28;20309;-71
2022/09/19 11:52:26;;;;;;;5.85;0.95;;;19.90;99.90;;;;;;5083170;28;20277;-71
2022/09/19 11:55:03;;;;;;;4.18;0.88;;;20.00;99.90;;;;;;5071749;28;20178;-71
2022/09/19 11:57:48;;;;;;;2.40;0.88;;;20.10;99.90;;;;;;5079873;28;20183;-71
2022/09/19 12:00:21;;;;;;;4.25;1.17;;;20.20;99.90;;;;;;5080905;28;20182;-71
2022/09/19 12:02:58;;;;;;;6.68;1.13;;;20.20;99.90;;;;;;5079446;28;20333;-71
2022/09/19 12:05:40;;;;;;;4.55;1.10;;;20.20;99.90;;;;;;5066449;28;20200;-72
2022/09/19 12:08:33;;;;;;;3.90;1.00;;;20.30;99.90;;;;;;5073345;28;20256;-70
2022/09/19 12:11:08;;;;;;;3.65;0.85;;;20.30;99.90;;;;;;5061875;28;20248;-71
2022/09/19 12:13:57;;;;;;;3.42;0.75;;;20.30;99.90;;;;;;5079865;28;20177;-70
2022/09/19 12:16:45;;;;;;;2.28;0.68;;;20.30;99.90;;;;;;5073221;28;20194;-71
2022/09/19 12:19:16;;;;;;;4.68;1.23;;;20.30;99.90;;;;;;5076726;28;20217;-71
2022/09/19 12:21:52;;;;;;;3.22;1.00;;;20.30;99.90;;;;;;5067043;28;20322;-71
2022/09/19 12:27:20;;;;;;;5.32;1.00;;;20.30;99.90;;;;;;5082175;28;20291;-73
2022/09/19 12:30:11;;;;;;;3.58;1.05;;;20.40;99.90;;;;;;5078707;28;20175;-72
2022/09/19 12:33:02;;;;;;;3.90;1.10;;;20.40;99.90;;;;;;5079911;28;20241;-72
2022/09/19 12:35:30;;;;;;;2.55;0.98;;;20.40;99.90;;;;;;5080384;28;20255;-72
2022/09/19 12:38:27;;;;;;;2.55;0.95;;;20.40;99.90;;;;;;5082431;28;20192;-72
2022/09/19 12:40:53;;;;;;;3.72;1.00;;;20.40;99.90;;;;;;5096511;28;20172;-73
2022/09/19 12:43:40;;;;;;;4.68;1.10;;;20.50;99.90;;;;;;5078998;28;20186;-72
2022/09/19 12:46:34;;;;;;;4.25;1.00;;;20.50;99.90;;;;;;5075476;28;20211;-72
2022/09/19 12:49:08;;;;;;;3.33;1.02;;;20.60;99.90;;;;;;5076784;28;20271;-72
2022/09/19 12:51:42;;;;;;;3.88;0.88;;;20.70;99.90;;;;;;5078831;28;20199;-72
2022/09/19 12:54:19;;;;;;;4.28;1.20;;;20.80;99.90;;;;;;5075184;28;20199;-72
2022/09/19 12:56:54;;;;;;;2.92;0.95;;;20.80;99.90;;;;;;5079068;28;20172;-72
2022/09/19 12:59:25;;;;;;;2.90;0.90;;;21.00;99.90;;;;;;5076561;28;20219;-72
2022/09/19 13:02:18;;;;;;;3.25;1.00;;;21.10;99.90;;;;;;5074048;28;20226;-73
2022/09/19 13:05:21;;;;;;;3.85;0.93;;;21.20;99.90;;;;;;5078582;28;20219;-73
2022/09/19 13:07:53;;;;;;;3.03;0.90;;;21.20;99.90;;;;;;5075172;28;20230;-73
2022/09/19 13:10:36;;;;;;;3.10;1.15;;;21.30;99.90;;;;;;5078220;28;20271;-71
2022/09/19 13:13:24;;;;;;;2.83;1.27;;;21.20;99.90;;;;;;5078781;28;20235;-71
2022/09/19 13:15:51;;;;;;;3.25;1.02;;;21.20;99.90;;;;;;5074373;28;20199;-73
2022/09/19 13:24:12;;;;;;;2.60;1.10;;;21.00;99.90;;;;;;5075974;28;20211;-72
2022/09/19 13:26:40;;;;;;;3.05;0.80;;;21.00;99.90;;;;;;5072380;28;20206;-72
2022/09/19 13:29:26;;;;;;;1.83;0.77;;;21.00;99.90;;;;;;5077175;28;20191;-73
2022/09/19 13:32:01;;;;;;;1.45;0.65;;;20.70;99.90;;;;;;5060219;28;20209;-72
2022/09/19 13:34:40;;;;;;;1.85;0.50;;;20.40;99.90;;;;;;5075317;28;20167;-71
2022/09/19 13:37:29;;;;;;;1.48;0.63;;;20.00;99.90;;;;;;5078096;28;20172;-72
2022/09/19 13:40:15;;;;;;;2.58;0.68;;;19.50;99.90;;;;;;5078013;28;20188;-72
2022/09/19 13:42:52;;;;;;;3.72;0.70;;;19.00;99.90;;;;;;5078254;28;20168;-73
2022/09/19 13:45:21;;;;;;;1.83;0.77;;;18.50;99.90;;;;;;5074524;28;20465;-71